sensor_id;sensor_type;location;lat;lon;timestamp;temperature;humidity
53776;DHT22;44276;49.534;6.378;2023-05-16T00:01:35;11.30;99.90
53776;DHT22;44276;49.534;6.378;2023-05-16T00:04:04;11.30;99.90
53776;DHT22;44276;49.534;6.378;2023-05-16T00:06:34;11.20;99.90
53776;DHT22;44276;49.534;6.378;2023-05-16T00:09:02;11.20;99.90
53776;DHT22;44276;49.534;6.378;2023-05-16T00:11:30;11.20;99.90
53776;DHT22;44276;49.534;6.378;2023-05-16T00:13:59;11.20;99.90
53776;DHT22;44276;49.534;6.378;2023-05-16T00:16:27;11.30;99.90
53776;DHT22;44276;49.534;6.378;2023-05-16T00:18:56;11.30;99.90
53776;DHT22;44276;49.534;6.378;2023-05-16T00:21:25;11.30;99.90
53776;DHT22;44276;49.534;6.378;2023-05-16T00:23:55;11.20;99.90
53776;DHT22;44276;49.534;6.378;2023-05-16T00:26:23;11.20;99.90
53776;DHT22;44276;49.534;6.378;2023-05-16T00:28:51;11.20;99.90
53776;DHT22;44276;49.534;6.378;2023-05-16T00:31:19;11.30;99.90
53776;DHT22;44276;49.534;6.378;2023-05-16T00:33:48;11.30;99.90
53776;DHT22;44276;49.534;6.378;2023-05-16T00:36:16;11.30;99.90
53776;DHT22;44276;49.534;6.378;2023-05-16T00:38:46;11.30;99.90
53776;DHT22;44276;49.534;6.378;2023-05-16T00:41:16;11.30;99.90
53776;DHT22;44276;49.534;6.378;2023-05-16T00:43:44;11.30;99.90
53776;DHT22;44276;49.534;6.378;2023-05-16T00:46:12;11.30;99.90
53776;DHT22;44276;49.534;6.378;2023-05-16T00:48:41;11.30;99.90
53776;DHT22;44276;49.534;6.378;2023-05-16T00:51:09;11.30;99.90
53776;DHT22;44276;49.534;6.378;2023-05-16T00:53:37;11.30;99.90
53776;DHT22;44276;49.534;6.378;2023-05-16T00:56:06;11.40;99.90
53776;DHT22;44276;49.534;6.378;2023-05-16T00:58:36;11.40;99.90
53776;DHT22;44276;49.534;6.378;2023-05-16T01:01:04;11.40;99.90
53776;DHT22;44276;49.534;6.378;2023-05-16T01:03:33;11.50;99.90
53776;DHT22;44276;49.534;6.378;2023-05-16T01:06:02;11.50;99.90
53776;DHT22;44276;49.534;6.378;2023-05-16T01:08:30;11.50;99.90
53776;DHT22;44276;49.534;6.378;2023-05-16T01:11:03;11.50;99.90
53776;DHT22;44276;49.534;6.378;2023-05-16T01:13:50;11.50;99.90
53776;DHT22;44276;49.534;6.378;2023-05-16T01:16:30;11.60;99.90
53776;DHT22;44276;49.534;6.378;2023-05-16T01:19:12;11.60;99.90
53776;DHT22;44276;49.534;6.378;2023-05-16T01:21:48;11.60;99.90
53776;DHT22;44276;49.534;6.378;2023-05-16T01:24:33;11.60;99.90
53776;DHT22;44276;49.534;6.378;2023-05-16T01:27:09;11.60;99.90
53776;DHT22;44276;49.534;6.378;2023-05-16T01:29:40;11.60;99.90
53776;DHT22;44276;49.534;6.378;2023-05-16T01:32:08;11.60;99.90
53776;DHT22;44276;49.534;6.378;2023-05-16T01:34:36;11.50;99.90
53776;DHT22;44276;49.534;6.378;2023-05-16T01:37:11;11.50;99.90
53776;DHT22;44276;49.534;6.378;2023-05-16T01:39:52;11.40;99.90
53776;DHT22;44276;49.534;6.378;2023-05-16T01:42:31;11.40;99.90
53776;DHT22;44276;49.534;6.378;2023-05-16T01:45:04;11.40;99.90
53776;DHT22;44276;49.534;6.378;2023-05-16T01:47:41;11.30;99.90
53776;DHT22;44276;49.534;6.378;2023-05-16T01:50:16;11.30;99.90
53776;DHT22;44276;49.534;6.378;2023-05-16T01:52:47;11.30;99.90
53776;DHT22;44276;49.534;6.378;2023-05-16T01:55:35;11.30;99.90
53776;DHT22;44276;49.534;6.378;2023-05-16T01:58:10;11.30;99.90
53776;DHT22;44276;49.534;6.378;2023-05-16T02:00:41;11.30;99.90
53776;DHT22;44276;49.534;6.378;2023-05-16T02:03:10;11.30;99.90
53776;DHT22;44276;49.534;6.378;2023-05-16T02:05:38;11.30;99.90
53776;DHT22;44276;49.534;6.378;2023-05-16T02:08:07;11.20;99.90
53776;DHT22;44276;49.534;6.378;2023-05-16T02:10:35;11.20;99.90
53776;DHT22;44276;49.534;6.378;2023-05-16T02:13:05;11.10;99.90
53776;DHT22;44276;49.534;6.378;2023-05-16T02:15:35;11.10;99.90
53776;DHT22;44276;49.534;6.378;2023-05-16T02:18:03;11.00;99.90
53776;DHT22;44276;49.534;6.378;2023-05-16T02:20:31;11.10;99.90
53776;DHT22;44276;49.534;6.378;2023-05-16T02:23:00;11.10;99.90
53776;DHT22;44276;49.534;6.378;2023-05-16T02:25:28;11.10;99.90
53776;DHT22;44276;49.534;6.378;2023-05-16T02:27:56;11.00;99.90
53776;DHT22;44276;49.534;6.378;2023-05-16T02:30:25;11.00;99.90
53776;DHT22;44276;49.534;6.378;2023-05-16T02:32:57;10.90;99.90
53776;DHT22;44276;49.534;6.378;2023-05-16T02:35:25;10.90;99.90
53776;DHT22;44276;49.534;6.378;2023-05-16T02:37:53;10.90;99.90
53776;DHT22;44276;49.534;6.378;2023-05-16T02:40:22;10.80;99.90
53776;DHT22;44276;49.534;6.378;2023-05-16T02:42:50;10.70;99.90
53776;DHT22;44276;49.534;6.378;2023-05-16T02:45:18;10.70;99.90
53776;DHT22;44276;49.534;6.378;2023-05-16T02:47:47;10.60;99.90
53776;DHT22;44276;49.534;6.378;2023-05-16T02:50:16;10.50;99.90
53776;DHT22;44276;49.534;6.378;2023-05-16T02:52:44;10.40;99.90
53776;DHT22;44276;49.534;6.378;2023-05-16T02:55:13;10.30;99.90
53776;DHT22;44276;49.534;6.378;2023-05-16T02:57:48;10.20;99.90
53776;DHT22;44276;49.534;6.378;2023-05-16T03:00:18;10.10;99.90
53776;DHT22;44276;49.534;6.378;2023-05-16T03:02:46;10.10;99.90
53776;DHT22;44276;49.534;6.378;2023-05-16T03:05:16;10.00;99.90
53776;DHT22;44276;49.534;6.378;2023-05-16T03:07:44;9.90;99.90
53776;DHT22;44276;49.534;6.378;2023-05-16T03:10:12;9.90;99.90
53776;DHT22;44276;49.534;6.378;2023-05-16T03:12:40;9.80;99.90
53776;DHT22;44276;49.534;6.378;2023-05-16T03:15:09;9.80;99.90
53776;DHT22;44276;49.534;6.378;2023-05-16T03:17:37;9.70;99.90
53776;DHT22;44276;49.534;6.378;2023-05-16T03:20:07;9.60;99.90
53776;DHT22;44276;49.534;6.378;2023-05-16T03:22:38;9.60;99.90
53776;DHT22;44276;49.534;6.378;2023-05-16T03:25:07;9.50;99.90
53776;DHT22;44276;49.534;6.378;2023-05-16T03:27:35;9.50;99.90
53776;DHT22;44276;49.534;6.378;2023-05-16T03:30:04;9.50;99.90
53776;DHT22;44276;49.534;6.378;2023-05-16T03:32:34;9.50;99.90
53776;DHT22;44276;49.534;6.378;2023-05-16T03:35:02;9.50;99.90
53776;DHT22;44276;49.534;6.378;2023-05-16T03:37:31;9.40;99.90
53776;DHT22;44276;49.534;6.378;2023-05-16T03:40:00;9.40;99.90
53776;DHT22;44276;49.534;6.378;2023-05-16T03:42:30;9.30;99.90
53776;DHT22;44276;49.534;6.378;2023-05-16T03:44:58;9.20;99.90
53776;DHT22;44276;49.534;6.378;2023-05-16T03:47:27;9.20;99.90
53776;DHT22;44276;49.534;6.378;2023-05-16T03:49:57;9.30;99.90
53776;DHT22;44276;49.534;6.378;2023-05-16T03:52:25;9.30;99.90
53776;DHT22;44276;49.534;6.378;2023-05-16T03:54:53;9.20;99.90
53776;DHT22;44276;49.534;6.378;2023-05-16T03:57:23;9.20;99.90
53776;DHT22;44276;49.534;6.378;2023-05-16T03:59:51;9.30;99.90
53776;DHT22;44276;49.534;6.378;2023-05-16T04:02:19;9.30;99.90
53776;DHT22;44276;49.534;6.378;2023-05-16T04:04:47;9.30;99.90
53776;DHT22;44276;49.534;6.378;2023-05-16T04:07:15;9.30;99.90
53776;DHT22;44276;49.534;6.378;2023-05-16T04:09:44;9.30;99.90
53776;DHT22;44276;49.534;6.378;2023-05-16T04:12:12;9.40;99.90
53776;DHT22;44276;49.534;6.378;2023-05-16T04:14:41;9.40;99.90
53776;DHT22;44276;49.534;6.378;2023-05-16T04:17:09;9.40;99.90
53776;DHT22;44276;49.534;6.378;2023-05-16T04:19:38;9.40;99.90
53776;DHT22;44276;49.534;6.378;2023-05-16T04:22:06;9.40;99.90
53776;DHT22;44276;49.534;6.378;2023-05-16T04:24:34;9.40;99.90
53776;DHT22;44276;49.534;6.378;2023-05-16T04:27:03;9.40;99.90
53776;DHT22;44276;49.534;6.378;2023-05-16T04:29:32;9.30;99.90
53776;DHT22;44276;49.534;6.378;2023-05-16T04:32:01;9.30;99.90
53776;DHT22;44276;49.534;6.378;2023-05-16T04:34:30;9.20;99.90
53776;DHT22;44276;49.534;6.378;2023-05-16T04:36:59;9.20;99.90
53776;DHT22;44276;49.534;6.378;2023-05-16T04:39:28;9.10;99.90
53776;DHT22;44276;49.534;6.378;2023-05-16T04:41:56;9.00;99.90
53776;DHT22;44276;49.534;6.378;2023-05-16T04:44:24;8.90;99.90
53776;DHT22;44276;49.534;6.378;2023-05-16T04:46:53;9.00;99.90
53776;DHT22;44276;49.534;6.378;2023-05-16T04:49:23;8.90;99.90
53776;DHT22;44276;49.534;6.378;2023-05-16T04:51:51;8.90;99.90
53776;DHT22;44276;49.534;6.378;2023-05-16T04:54:19;8.80;99.90
53776;DHT22;44276;49.534;6.378;2023-05-16T04:56:48;8.80;99.90
53776;DHT22;44276;49.534;6.378;2023-05-16T04:59:16;8.80;99.90
53776;DHT22;44276;49.534;6.378;2023-05-16T05:01:44;8.80;99.90
53776;DHT22;44276;49.534;6.378;2023-05-16T05:04:12;8.80;99.90
53776;DHT22;44276;49.534;6.378;2023-05-16T05:06:42;8.80;99.90
53776;DHT22;44276;49.534;6.378;2023-05-16T05:09:10;8.90;99.90
53776;DHT22;44276;49.534;6.378;2023-05-16T05:11:38;8.70;99.90
53776;DHT22;44276;49.534;6.378;2023-05-16T05:14:06;8.80;99.90
53776;DHT22;44276;49.534;6.378;2023-05-16T05:16:35;8.80;99.90
53776;DHT22;44276;49.534;6.378;2023-05-16T05:19:03;8.80;99.90
53776;DHT22;44276;49.534;6.378;2023-05-16T05:21:31;8.80;99.90
53776;DHT22;44276;49.534;6.378;2023-05-16T05:24:01;8.80;99.90
53776;DHT22;44276;49.534;6.378;2023-05-16T05:26:29;8.90;99.90
53776;DHT22;44276;49.534;6.378;2023-05-16T05:28:58;8.90;99.90
53776;DHT22;44276;49.534;6.378;2023-05-16T05:31:31;8.90;99.90
53776;DHT22;44276;49.534;6.378;2023-05-16T05:34:01;8.90;99.90
53776;DHT22;44276;49.534;6.378;2023-05-16T05:36:30;9.00;99.90
53776;DHT22;44276;49.534;6.378;2023-05-16T05:38:58;9.10;99.90
53776;DHT22;44276;49.534;6.378;2023-05-16T05:41:27;9.20;99.90
53776;DHT22;44276;49.534;6.378;2023-05-16T05:43:55;9.20;99.90
53776;DHT22;44276;49.534;6.378;2023-05-16T05:46:24;9.20;99.90
53776;DHT22;44276;49.534;6.378;2023-05-16T05:48:52;9.20;99.90
53776;DHT22;44276;49.534;6.378;2023-05-16T05:51:20;9.30;99.90
53776;DHT22;44276;49.534;6.378;2023-05-16T05:53:49;9.40;99.90
53776;DHT22;44276;49.534;6.378;2023-05-16T05:56:17;9.40;99.90
53776;DHT22;44276;49.534;6.378;2023-05-16T05:58:48;9.50;99.90
53776;DHT22;44276;49.534;6.378;2023-05-16T06:01:16;9.50;99.90
53776;DHT22;44276;49.534;6.378;2023-05-16T06:03:46;9.60;99.90
53776;DHT22;44276;49.534;6.378;2023-05-16T06:06:14;9.60;99.90
53776;DHT22;44276;49.534;6.378;2023-05-16T06:08:42;9.80;99.90
53776;DHT22;44276;49.534;6.378;2023-05-16T06:11:10;9.80;99.90
53776;DHT22;44276;49.534;6.378;2023-05-16T06:13:39;9.90;99.90
53776;DHT22;44276;49.534;6.378;2023-05-16T06:16:08;9.90;99.90
53776;DHT22;44276;49.534;6.378;2023-05-16T06:18:38;9.90;99.90
53776;DHT22;44276;49.534;6.378;2023-05-16T06:21:06;10.10;99.90
53776;DHT22;44276;49.534;6.378;2023-05-16T06:23:34;10.10;99.90
53776;DHT22;44276;49.534;6.378;2023-05-16T06:26:03;10.20;99.90
53776;DHT22;44276;49.534;6.378;2023-05-16T06:28:31;10.20;99.90
53776;DHT22;44276;49.534;6.378;2023-05-16T06:30:59;10.30;99.90
53776;DHT22;44276;49.534;6.378;2023-05-16T06:33:29;10.30;99.90
53776;DHT22;44276;49.534;6.378;2023-05-16T06:35:57;10.30;99.90
53776;DHT22;44276;49.534;6.378;2023-05-16T06:38:25;10.20;99.90
53776;DHT22;44276;49.534;6.378;2023-05-16T06:40:53;10.10;99.90
53776;DHT22;44276;49.534;6.378;2023-05-16T06:43:21;10.00;99.90
53776;DHT22;44276;49.534;6.378;2023-05-16T06:45:50;10.00;99.90
53776;DHT22;44276;49.534;6.378;2023-05-16T06:48:18;10.10;99.90
53776;DHT22;44276;49.534;6.378;2023-05-16T06:50:48;10.10;99.90
53776;DHT22;44276;49.534;6.378;2023-05-16T06:53:17;10.10;99.90
53776;DHT22;44276;49.534;6.378;2023-05-16T06:55:46;10.10;99.90
53776;DHT22;44276;49.534;6.378;2023-05-16T06:58:14;10.10;99.90
53776;DHT22;44276;49.534;6.378;2023-05-16T07:00:43;10.20;99.90
53776;DHT22;44276;49.534;6.378;2023-05-16T07:03:14;10.20;99.90
53776;DHT22;44276;49.534;6.378;2023-05-16T07:05:42;10.30;99.90
53776;DHT22;44276;49.534;6.378;2023-05-16T07:08:12;10.40;99.90
53776;DHT22;44276;49.534;6.378;2023-05-16T07:10:41;10.40;99.90
53776;DHT22;44276;49.534;6.378;2023-05-16T07:13:09;10.30;99.90
53776;DHT22;44276;49.534;6.378;2023-05-16T07:15:37;10.40;99.90
53776;DHT22;44276;49.534;6.378;2023-05-16T07:18:06;10.40;99.90
53776;DHT22;44276;49.534;6.378;2023-05-16T07:20:34;10.40;99.90
53776;DHT22;44276;49.534;6.378;2023-05-16T07:23:05;10.40;99.90
53776;DHT22;44276;49.534;6.378;2023-05-16T07:25:35;10.40;99.90
53776;DHT22;44276;49.534;6.378;2023-05-16T07:28:04;10.40;97.70
53776;DHT22;44276;49.534;6.378;2023-05-16T07:30:33;10.50;95.70
53776;DHT22;44276;49.534;6.378;2023-05-16T07:33:02;10.60;91.50
53776;DHT22;44276;49.534;6.378;2023-05-16T07:35:31;10.60;85.00
53776;DHT22;44276;49.534;6.378;2023-05-16T07:38:06;10.70;87.40
53776;DHT22;44276;49.534;6.378;2023-05-16T07:40:39;10.90;76.50
53776;DHT22;44276;49.534;6.378;2023-05-16T07:43:08;11.10;67.70
53776;DHT22;44276;49.534;6.378;2023-05-16T07:45:40;11.20;64.90
53776;DHT22;44276;49.534;6.378;2023-05-16T07:48:09;11.30;61.30
53776;DHT22;44276;49.534;6.378;2023-05-16T07:50:41;11.20;59.70
53776;DHT22;44276;49.534;6.378;2023-05-16T07:53:11;11.40;60.20
53776;DHT22;44276;49.534;6.378;2023-05-16T07:55:42;11.60;58.60
53776;DHT22;44276;49.534;6.378;2023-05-16T07:58:10;11.80;58.80
53776;DHT22;44276;49.534;6.378;2023-05-16T08:00:39;12.10;51.70
53776;DHT22;44276;49.534;6.378;2023-05-16T08:03:07;12.10;48.00
53776;DHT22;44276;49.534;6.378;2023-05-16T08:05:35;12.00;48.80
53776;DHT22;44276;49.534;6.378;2023-05-16T08:08:05;12.00;46.10
53776;DHT22;44276;49.534;6.378;2023-05-16T08:10:33;12.10;45.20
53776;DHT22;44276;49.534;6.378;2023-05-16T08:13:04;12.30;41.70
53776;DHT22;44276;49.534;6.378;2023-05-16T08:15:33;12.40;40.20
53776;DHT22;44276;49.534;6.378;2023-05-16T08:18:01;12.50;38.30
53776;DHT22;44276;49.534;6.378;2023-05-16T08:20:32;12.90;36.30
53776;DHT22;44276;49.534;6.378;2023-05-16T08:23:01;14.10;33.60
53776;DHT22;44276;49.534;6.378;2023-05-16T08:25:29;15.40;29.60
53776;DHT22;44276;49.534;6.378;2023-05-16T08:28:00;15.60;28.30
53776;DHT22;44276;49.534;6.378;2023-05-16T08:30:30;15.80;27.40
53776;DHT22;44276;49.534;6.378;2023-05-16T08:32:58;16.20;26.00
53776;DHT22;44276;49.534;6.378;2023-05-16T08:35:30;16.70;24.20
53776;DHT22;44276;49.534;6.378;2023-05-16T08:37:58;17.30;23.80
53776;DHT22;44276;49.534;6.378;2023-05-16T08:40:27;17.00;23.50
53776;DHT22;44276;49.534;6.378;2023-05-16T08:42:56;16.80;22.80
53776;DHT22;44276;49.534;6.378;2023-05-16T08:45:25;16.90;23.30
53776;DHT22;44276;49.534;6.378;2023-05-16T08:47:55;16.90;23.30
53776;DHT22;44276;49.534;6.378;2023-05-16T08:50:24;16.60;22.30
53776;DHT22;44276;49.534;6.378;2023-05-16T08:52:56;16.60;22.80
53776;DHT22;44276;49.534;6.378;2023-05-16T08:55:27;17.00;21.30
53776;DHT22;44276;49.534;6.378;2023-05-16T08:57:56;17.00;21.00
53776;DHT22;44276;49.534;6.378;2023-05-16T09:00:25;16.80;21.60
53776;DHT22;44276;49.534;6.378;2023-05-16T09:02:56;17.50;21.00
53776;DHT22;44276;49.534;6.378;2023-05-16T09:05:28;17.30;19.80
53776;DHT22;44276;49.534;6.378;2023-05-16T09:07:57;17.60;19.60
53776;DHT22;44276;49.534;6.378;2023-05-16T09:10:25;17.70;19.10
53776;DHT22;44276;49.534;6.378;2023-05-16T09:12:53;17.40;19.80
53776;DHT22;44276;49.534;6.378;2023-05-16T09:15:22;17.60;18.90
53776;DHT22;44276;49.534;6.378;2023-05-16T09:17:50;17.10;19.90
53776;DHT22;44276;49.534;6.378;2023-05-16T09:20:20;17.20;19.50
53776;DHT22;44276;49.534;6.378;2023-05-16T09:22:52;17.20;19.30
53776;DHT22;44276;49.534;6.378;2023-05-16T09:25:22;17.50;18.60
53776;DHT22;44276;49.534;6.378;2023-05-16T09:27:58;17.10;19.00
53776;DHT22;44276;49.534;6.378;2023-05-16T09:30:30;17.30;18.40
53776;DHT22;44276;49.534;6.378;2023-05-16T09:33:00;17.40;18.60
53776;DHT22;44276;49.534;6.378;2023-05-16T09:35:30;18.00;19.00
53776;DHT22;44276;49.534;6.378;2023-05-16T09:38:01;19.00;17.70
53776;DHT22;44276;49.534;6.378;2023-05-16T09:40:30;19.40;16.80
53776;DHT22;44276;49.534;6.378;2023-05-16T09:43:02;18.70;17.50
53776;DHT22;44276;49.534;6.378;2023-05-16T09:45:32;18.50;17.20
53776;DHT22;44276;49.534;6.378;2023-05-16T09:48:04;18.70;16.60
53776;DHT22;44276;49.534;6.378;2023-05-16T09:50:35;18.90;17.90
53776;DHT22;44276;49.534;6.378;2023-05-16T09:53:06;19.50;17.10
53776;DHT22;44276;49.534;6.378;2023-05-16T09:55:34;19.80;15.60
53776;DHT22;44276;49.534;6.378;2023-05-16T09:58:02;19.10;16.90
53776;DHT22;44276;49.534;6.378;2023-05-16T10:00:31;19.10;16.80
53776;DHT22;44276;49.534;6.378;2023-05-16T10:03:01;19.50;16.60
53776;DHT22;44276;49.534;6.378;2023-05-16T10:05:32;19.40;16.70
53776;DHT22;44276;49.534;6.378;2023-05-16T10:08:04;20.20;15.00
53776;DHT22;44276;49.534;6.378;2023-05-16T10:10:35;20.10;15.10
53776;DHT22;44276;49.534;6.378;2023-05-16T10:13:07;19.20;16.00
53776;DHT22;44276;49.534;6.378;2023-05-16T10:15:38;19.40;15.60
53776;DHT22;44276;49.534;6.378;2023-05-16T10:18:08;20.10;15.00
53776;DHT22;44276;49.534;6.378;2023-05-16T10:20:40;20.30;14.10
53776;DHT22;44276;49.534;6.378;2023-05-16T10:23:16;19.60;14.00
53776;DHT22;44276;49.534;6.378;2023-05-16T10:25:47;19.60;13.90
53776;DHT22;44276;49.534;6.378;2023-05-16T10:28:16;19.90;13.60
53776;DHT22;44276;49.534;6.378;2023-05-16T10:30:45;19.60;13.50
53776;DHT22;44276;49.534;6.378;2023-05-16T10:33:16;19.40;13.90
53776;DHT22;44276;49.534;6.378;2023-05-16T10:35:46;19.70;14.00
53776;DHT22;44276;49.534;6.378;2023-05-16T10:38:17;19.90;13.90
53776;DHT22;44276;49.534;6.378;2023-05-16T10:40:47;20.30;13.30
53776;DHT22;44276;49.534;6.378;2023-05-16T10:43:24;21.40;12.70
53776;DHT22;44276;49.534;6.378;2023-05-16T10:45:54;20.70;12.80
53776;DHT22;44276;49.534;6.378;2023-05-16T10:48:30;19.70;13.00
53776;DHT22;44276;49.534;6.378;2023-05-16T10:50:59;19.90;12.90
53776;DHT22;44276;49.534;6.378;2023-05-16T10:53:31;19.40;13.50
53776;DHT22;44276;49.534;6.378;2023-05-16T10:56:09;19.50;14.10
53776;DHT22;44276;49.534;6.378;2023-05-16T10:58:46;19.80;13.20
53776;DHT22;44276;49.534;6.378;2023-05-16T11:01:19;19.80;12.20
53776;DHT22;44276;49.534;6.378;2023-05-16T11:04:09;19.80;13.20
53776;DHT22;44276;49.534;6.378;2023-05-16T11:06:48;20.70;12.40
53776;DHT22;44276;49.534;6.378;2023-05-16T11:09:21;20.40;13.20
53776;DHT22;44276;49.534;6.378;2023-05-16T11:11:59;20.40;12.70
53776;DHT22;44276;49.534;6.378;2023-05-16T11:14:37;20.40;13.00
53776;DHT22;44276;49.534;6.378;2023-05-16T11:17:09;21.20;12.90
53776;DHT22;44276;49.534;6.378;2023-05-16T11:19:42;20.70;12.80
53776;DHT22;44276;49.534;6.378;2023-05-16T11:22:13;20.20;12.10
53776;DHT22;44276;49.534;6.378;2023-05-16T11:24:52;19.70;11.30
53776;DHT22;44276;49.534;6.378;2023-05-16T11:27:25;20.00;11.90
53776;DHT22;44276;49.534;6.378;2023-05-16T11:29:58;20.40;11.10
53776;DHT22;44276;49.534;6.378;2023-05-16T11:32:31;19.90;11.10
53776;DHT22;44276;49.534;6.378;2023-05-16T11:35:01;19.50;11.80
53776;DHT22;44276;49.534;6.378;2023-05-16T11:37:30;19.00;12.50
53776;DHT22;44276;49.534;6.378;2023-05-16T11:40:01;18.80;12.30
53776;DHT22;44276;49.534;6.378;2023-05-16T11:42:32;19.10;12.40
53776;DHT22;44276;49.534;6.378;2023-05-16T11:45:06;19.60;12.50
53776;DHT22;44276;49.534;6.378;2023-05-16T11:47:36;19.40;12.70
53776;DHT22;44276;49.534;6.378;2023-05-16T11:50:05;20.30;12.50
53776;DHT22;44276;49.534;6.378;2023-05-16T11:52:38;20.40;11.80
53776;DHT22;44276;49.534;6.378;2023-05-16T11:55:08;19.80;11.50
53776;DHT22;44276;49.534;6.378;2023-05-16T11:57:43;19.60;13.40
53776;DHT22;44276;49.534;6.378;2023-05-16T12:00:14;20.50;11.80
53776;DHT22;44276;49.534;6.378;2023-05-16T12:02:44;21.10;11.70
53776;DHT22;44276;49.534;6.378;2023-05-16T12:05:14;20.70;12.50
53776;DHT22;44276;49.534;6.378;2023-05-16T12:07:43;19.80;12.60
53776;DHT22;44276;49.534;6.378;2023-05-16T12:10:14;19.10;13.20
53776;DHT22;44276;49.534;6.378;2023-05-16T12:12:45;19.60;11.70
53776;DHT22;44276;49.534;6.378;2023-05-16T12:15:15;19.70;11.30
53776;DHT22;44276;49.534;6.378;2023-05-16T12:17:45;19.80;10.50
53776;DHT22;44276;49.534;6.378;2023-05-16T12:20:14;19.80;11.30
53776;DHT22;44276;49.534;6.378;2023-05-16T12:22:44;19.80;11.50
53776;DHT22;44276;49.534;6.378;2023-05-16T12:25:26;20.00;10.80
53776;DHT22;44276;49.534;6.378;2023-05-16T12:27:57;20.30;11.40
53776;DHT22;44276;49.534;6.378;2023-05-16T12:30:29;20.80;12.10
53776;DHT22;44276;49.534;6.378;2023-05-16T12:32:58;19.90;12.40
53776;DHT22;44276;49.534;6.378;2023-05-16T12:35:36;19.90;11.50
53776;DHT22;44276;49.534;6.378;2023-05-16T12:38:06;19.20;12.50
53776;DHT22;44276;49.534;6.378;2023-05-16T12:40:37;18.90;13.20
53776;DHT22;44276;49.534;6.378;2023-05-16T12:43:12;18.30;13.60
53776;DHT22;44276;49.534;6.378;2023-05-16T12:45:40;17.60;14.80
53776;DHT22;44276;49.534;6.378;2023-05-16T12:48:13;17.90;14.80
53776;DHT22;44276;49.534;6.378;2023-05-16T12:50:41;17.80;14.70
53776;DHT22;44276;49.534;6.378;2023-05-16T12:53:13;17.50;13.70
53776;DHT22;44276;49.534;6.378;2023-05-16T12:55:44;18.60;12.90
53776;DHT22;44276;49.534;6.378;2023-05-16T12:58:12;19.90;11.70
53776;DHT22;44276;49.534;6.378;2023-05-16T13:00:41;20.20;11.00
53776;DHT22;44276;49.534;6.378;2023-05-16T13:03:09;19.30;12.30
53776;DHT22;44276;49.534;6.378;2023-05-16T13:05:37;18.40;12.80
53776;DHT22;44276;49.534;6.378;2023-05-16T13:08:06;17.60;14.50
53776;DHT22;44276;49.534;6.378;2023-05-16T13:10:34;17.10;15.50
53776;DHT22;44276;49.534;6.378;2023-05-16T13:13:04;17.60;14.60
53776;DHT22;44276;49.534;6.378;2023-05-16T13:15:32;17.90;14.70
53776;DHT22;44276;49.534;6.378;2023-05-16T13:18:00;17.40;12.80
53776;DHT22;44276;49.534;6.378;2023-05-16T13:20:28;17.20;14.10
53776;DHT22;44276;49.534;6.378;2023-05-16T13:22:56;18.20;13.20
53776;DHT22;44276;49.534;6.378;2023-05-16T13:25:24;19.50;11.80
53776;DHT22;44276;49.534;6.378;2023-05-16T13:27:53;20.10;11.80
53776;DHT22;44276;49.534;6.378;2023-05-16T13:30:23;19.10;11.50
53776;DHT22;44276;49.534;6.378;2023-05-16T13:32:51;18.30;12.40
53776;DHT22;44276;49.534;6.378;2023-05-16T13:35:19;18.70;12.80
53776;DHT22;44276;49.534;6.378;2023-05-16T13:37:47;19.60;11.40
53776;DHT22;44276;49.534;6.378;2023-05-16T13:40:15;19.30;11.00
53776;DHT22;44276;49.534;6.378;2023-05-16T13:42:43;18.60;11.00
53776;DHT22;44276;49.534;6.378;2023-05-16T13:45:11;18.60;11.10
53776;DHT22;44276;49.534;6.378;2023-05-16T13:47:41;18.40;11.20
53776;DHT22;44276;49.534;6.378;2023-05-16T13:50:12;18.50;11.00
53776;DHT22;44276;49.534;6.378;2023-05-16T13:52:40;18.80;11.20
53776;DHT22;44276;49.534;6.378;2023-05-16T13:55:09;18.00;12.20
53776;DHT22;44276;49.534;6.378;2023-05-16T13:57:37;17.10;14.10
53776;DHT22;44276;49.534;6.378;2023-05-16T14:00:06;17.00;14.70
53776;DHT22;44276;49.534;6.378;2023-05-16T14:02:42;16.90;14.40
53776;DHT22;44276;49.534;6.378;2023-05-16T14:05:10;16.60;14.90
53776;DHT22;44276;49.534;6.378;2023-05-16T14:07:38;16.40;15.60
53776;DHT22;44276;49.534;6.378;2023-05-16T14:10:08;16.80;14.90
53776;DHT22;44276;49.534;6.378;2023-05-16T14:12:36;17.60;13.20
53776;DHT22;44276;49.534;6.378;2023-05-16T14:15:06;17.80;13.30
53776;DHT22;44276;49.534;6.378;2023-05-16T14:17:36;17.50;12.60
53776;DHT22;44276;49.534;6.378;2023-05-16T14:20:06;17.30;13.10
53776;DHT22;44276;49.534;6.378;2023-05-16T14:22:36;17.50;13.80
53776;DHT22;44276;49.534;6.378;2023-05-16T14:25:06;17.70;13.90
53776;DHT22;44276;49.534;6.378;2023-05-16T14:27:34;17.50;13.50
53776;DHT22;44276;49.534;6.378;2023-05-16T14:30:03;17.10;13.60
53776;DHT22;44276;49.534;6.378;2023-05-16T14:32:33;16.80;14.60
53776;DHT22;44276;49.534;6.378;2023-05-16T14:35:02;16.60;14.80
53776;DHT22;44276;49.534;6.378;2023-05-16T14:37:33;16.60;14.90
53776;DHT22;44276;49.534;6.378;2023-05-16T14:40:01;16.70;15.80
53776;DHT22;44276;49.534;6.378;2023-05-16T14:42:31;16.80;16.40
53776;DHT22;44276;49.534;6.378;2023-05-16T14:44:59;16.80;16.50
53776;DHT22;44276;49.534;6.378;2023-05-16T14:47:27;16.50;16.70
53776;DHT22;44276;49.534;6.378;2023-05-16T14:49:56;16.30;16.90
53776;DHT22;44276;49.534;6.378;2023-05-16T14:52:25;16.30;17.70
53776;DHT22;44276;49.534;6.378;2023-05-16T14:54:54;16.30;17.70
53776;DHT22;44276;49.534;6.378;2023-05-16T14:57:22;16.70;16.60
53776;DHT22;44276;49.534;6.378;2023-05-16T14:59:50;17.60;15.20
53776;DHT22;44276;49.534;6.378;2023-05-16T15:02:19;17.80;15.40
53776;DHT22;44276;49.534;6.378;2023-05-16T15:04:47;17.90;15.20
53776;DHT22;44276;49.534;6.378;2023-05-16T15:07:15;18.00;15.40
53776;DHT22;44276;49.534;6.378;2023-05-16T15:09:43;17.90;15.80
53776;DHT22;44276;49.534;6.378;2023-05-16T15:12:13;17.40;16.10
53776;DHT22;44276;49.534;6.378;2023-05-16T15:14:41;17.00;17.10
53776;DHT22;44276;49.534;6.378;2023-05-16T15:17:09;16.70;16.90
53776;DHT22;44276;49.534;6.378;2023-05-16T15:19:37;16.30;17.90
53776;DHT22;44276;49.534;6.378;2023-05-16T15:22:05;15.80;18.20
53776;DHT22;44276;49.534;6.378;2023-05-16T15:24:34;15.60;18.30
53776;DHT22;44276;49.534;6.378;2023-05-16T15:27:02;15.70;19.10
53776;DHT22;44276;49.534;6.378;2023-05-16T15:29:32;15.80;17.80
53776;DHT22;44276;49.534;6.378;2023-05-16T15:32:03;16.40;17.80
53776;DHT22;44276;49.534;6.378;2023-05-16T15:34:34;17.50;17.20
53776;DHT22;44276;49.534;6.378;2023-05-16T15:37:02;18.40;15.10
53776;DHT22;44276;49.534;6.378;2023-05-16T15:39:30;17.90;14.90
53776;DHT22;44276;49.534;6.378;2023-05-16T15:41:58;17.20;16.00
53776;DHT22;44276;49.534;6.378;2023-05-16T15:44:38;16.80;16.80
53776;DHT22;44276;49.534;6.378;2023-05-16T15:47:07;16.80;17.10
53776;DHT22;44276;49.534;6.378;2023-05-16T15:49:36;16.60;16.20
53776;DHT22;44276;49.534;6.378;2023-05-16T15:52:04;16.40;15.70